sensor_id;sensor_type;location;lat;lon;timestamp;pressure;altitude;pressure_sealevel;temperature;humidity
61674;BME280;47573;43.832;5.974;2023-01-28T00:02:35;94752.53;;;18.70;66.71
61674;BME280;47573;43.832;5.974;2023-01-28T00:09:16;94756.06;;;18.71;66.36
61674;BME280;47573;43.832;5.974;2023-01-28T00:15:57;94753.31;;;18.59;66.36
61674;BME280;47573;43.832;5.974;2023-01-28T00:22:39;94754.25;;;18.53;66.46
61674;BME280;47573;43.832;5.974;2023-01-28T00:29:20;94758.44;;;18.49;66.43
61674;BME280;47573;43.832;5.974;2023-01-28T00:36:01;94754.31;;;18.47;66.37
61674;BME280;47573;43.832;5.974;2023-01-28T00:42:43;94748.97;;;18.40;66.58
61674;BME280;47573;43.832;5.974;2023-01-28T00:49:24;94744.00;;;18.37;66.63
61674;BME280;47573;43.832;5.974;2023-01-28T00:56:05;94747.03;;;18.29;66.43
61674;BME280;47573;43.832;5.974;2023-01-28T01:02:47;94755.00;;;18.24;65.64
61674;BME280;47573;43.832;5.974;2023-01-28T01:09:28;94757.13;;;18.22;65.56
61674;BME280;47573;43.832;5.974;2023-01-28T01:16:09;94759.28;;;18.13;65.66
61674;BME280;47573;43.832;5.974;2023-01-28T01:22:52;94768.97;;;18.03;65.92
61674;BME280;47573;43.832;5.974;2023-01-28T01:29:32;94794.78;;;17.99;65.61
61674;BME280;47573;43.832;5.974;2023-01-28T01:36:14;94805.28;;;17.89;65.60
61674;BME280;47573;43.832;5.974;2023-01-28T01:42:56;94809.69;;;17.83;65.45
61674;BME280;47573;43.832;5.974;2023-01-28T01:49:37;94817.84;;;17.77;65.42
61674;BME280;47573;43.832;5.974;2023-01-28T01:56:21;94817.91;;;17.70;65.48
61674;BME280;47573;43.832;5.974;2023-01-28T02:03:04;94805.09;;;17.65;65.32
61674;BME280;47573;43.832;5.974;2023-01-28T02:09:45;94805.53;;;17.62;65.16
61674;BME280;47573;43.832;5.974;2023-01-28T02:16:25;94816.59;;;17.54;65.33
61674;BME280;47573;43.832;5.974;2023-01-28T02:23:21;94823.50;;;17.50;65.15
61674;BME280;47573;43.832;5.974;2023-01-28T02:30:15;94820.38;;;17.47;64.70
61674;BME280;47573;43.832;5.974;2023-01-28T02:37:03;94821.28;;;17.41;65.06
61674;BME280;47573;43.832;5.974;2023-01-28T02:43:46;94813.84;;;17.36;64.99
61674;BME280;47573;43.832;5.974;2023-01-28T02:50:34;94815.75;;;17.29;65.11
61674;BME280;47573;43.832;5.974;2023-01-28T02:57:29;94812.91;;;17.24;64.98
61674;BME280;47573;43.832;5.974;2023-01-28T03:04:19;94820.81;;;17.19;65.02
61674;BME280;47573;43.832;5.974;2023-01-28T03:11:04;94818.97;;;17.13;65.03
61674;BME280;47573;43.832;5.974;2023-01-28T03:17:46;94807.59;;;17.11;65.08
61674;BME280;47573;43.832;5.974;2023-01-28T03:24:30;94804.72;;;17.06;65.08
61674;BME280;47573;43.832;5.974;2023-01-28T03:31:14;94805.16;;;17.03;65.23
61674;BME280;47573;43.832;5.974;2023-01-28T03:37:57;94800.66;;;16.97;65.19
61674;BME280;47573;43.832;5.974;2023-01-28T03:44:38;94800.22;;;16.94;65.28
61674;BME280;47573;43.832;5.974;2023-01-28T03:51:20;94794.47;;;16.90;65.26
61674;BME280;47573;43.832;5.974;2023-01-28T03:58:00;94791.97;;;16.88;65.08
61674;BME280;47573;43.832;5.974;2023-01-28T04:04:41;94792.63;;;16.84;64.95
61674;BME280;47573;43.832;5.974;2023-01-28T04:11:22;94790.34;;;16.81;64.76
61674;BME280;47573;43.832;5.974;2023-01-28T04:18:03;94800.75;;;16.77;64.69
61674;BME280;47573;43.832;5.974;2023-01-28T04:24:43;94818.19;;;16.75;64.37
61674;BME280;47573;43.832;5.974;2023-01-28T04:31:25;94815.09;;;16.71;64.30
61674;BME280;47573;43.832;5.974;2023-01-28T04:38:06;94813.50;;;16.64;64.45
61674;BME280;47573;43.832;5.974;2023-01-28T04:44:46;94821.16;;;16.60;64.37
61674;BME280;47573;43.832;5.974;2023-01-28T04:51:28;94828.44;;;16.60;64.29
61674;BME280;47573;43.832;5.974;2023-01-28T04:58:08;94838.59;;;16.58;64.18
61674;BME280;47573;43.832;5.974;2023-01-28T05:04:49;94842.75;;;16.54;64.18
61674;BME280;47573;43.832;5.974;2023-01-28T05:11:31;94862.06;;;16.51;64.05
61674;BME280;47573;43.832;5.974;2023-01-28T05:18:11;94857.28;;;16.46;64.28
61674;BME280;47573;43.832;5.974;2023-01-28T05:24:52;94871.38;;;16.42;64.11
61674;BME280;47573;43.832;5.974;2023-01-28T05:31:34;94860.00;;;16.40;64.24
61674;BME280;47573;43.832;5.974;2023-01-28T05:38:14;94868.50;;;16.37;64.21
61674;BME280;47573;43.832;5.974;2023-01-28T05:44:55;94878.06;;;16.33;64.22
61674;BME280;47573;43.832;5.974;2023-01-28T05:51:36;94865.81;;;16.37;64.20
61674;BME280;47573;43.832;5.974;2023-01-28T05:58:17;94878.47;;;16.30;64.35
61674;BME280;47573;43.832;5.974;2023-01-28T06:04:58;94869.56;;;16.23;64.38
61674;BME280;47573;43.832;5.974;2023-01-28T06:11:40;94878.09;;;16.20;64.35
61674;BME280;47573;43.832;5.974;2023-01-28T06:18:20;94901.72;;;16.18;64.21
61674;BME280;47573;43.832;5.974;2023-01-28T06:25:00;94912.28;;;16.13;64.26
61674;BME280;47573;43.832;5.974;2023-01-28T06:31:42;94917.47;;;16.07;64.40
61674;BME280;47573;43.832;5.974;2023-01-28T06:38:23;94921.81;;;16.02;64.46
61674;BME280;47573;43.832;5.974;2023-01-28T06:45:04;94922.03;;;16.00;64.28
61674;BME280;47573;43.832;5.974;2023-01-28T06:51:46;94941.09;;;15.99;64.33
61674;BME280;47573;43.832;5.974;2023-01-28T06:58:26;94940.06;;;15.93;64.28
61674;BME280;47573;43.832;5.974;2023-01-28T07:05:08;94941.31;;;15.97;64.27
61674;BME280;47573;43.832;5.974;2023-01-28T07:11:49;94947.31;;;15.93;64.29
61674;BME280;47573;43.832;5.974;2023-01-28T07:18:30;94950.63;;;15.95;63.99
61674;BME280;47573;43.832;5.974;2023-01-28T07:25:12;94951.25;;;15.90;64.15
61674;BME280;47573;43.832;5.974;2023-01-28T07:31:54;94955.59;;;15.91;64.20
61674;BME280;47573;43.832;5.974;2023-01-28T07:38:34;94958.09;;;15.86;64.14
61674;BME280;47573;43.832;5.974;2023-01-28T07:45:15;94975.25;;;15.85;64.08
61674;BME280;47573;43.832;5.974;2023-01-28T07:51:57;94977.34;;;15.90;63.86
61674;BME280;47573;43.832;5.974;2023-01-28T07:58:37;94985.63;;;15.88;63.79
61674;BME280;47573;43.832;5.974;2023-01-28T08:05:19;94981.47;;;15.86;63.60
61674;BME280;47573;43.832;5.974;2023-01-28T08:12:01;94991.00;;;15.88;63.50
61674;BME280;47573;43.832;5.974;2023-01-28T08:18:42;94980.44;;;15.93;63.04
61674;BME280;47573;43.832;5.974;2023-01-28T08:25:22;94990.81;;;15.96;63.17
61674;BME280;47573;43.832;5.974;2023-01-28T08:32:04;95010.28;;;15.98;63.05
61674;BME280;47573;43.832;5.974;2023-01-28T08:38:45;95024.16;;;16.15;62.81
61674;BME280;47573;43.832;5.974;2023-01-28T08:45:26;95027.88;;;16.21;62.78
61674;BME280;47573;43.832;5.974;2023-01-28T08:52:08;95029.75;;;16.20;63.13
61674;BME280;47573;43.832;5.974;2023-01-28T08:58:49;95025.19;;;16.34;62.65
61674;BME280;47573;43.832;5.974;2023-01-28T09:05:29;95069.13;;;16.41;62.60
61674;BME280;47573;43.832;5.974;2023-01-28T09:12:11;95061.44;;;16.38;62.45
61674;BME280;47573;43.832;5.974;2023-01-28T09:18:52;95052.97;;;16.41;62.62
61674;BME280;47573;43.832;5.974;2023-01-28T09:25:32;95057.28;;;16.42;62.65
61674;BME280;47573;43.832;5.974;2023-01-28T09:32:14;95067.88;;;16.43;62.32
61674;BME280;47573;43.832;5.974;2023-01-28T09:38:55;95070.78;;;16.55;62.22
61674;BME280;47573;43.832;5.974;2023-01-28T09:45:37;95073.28;;;16.63;61.70
61674;BME280;47573;43.832;5.974;2023-01-28T09:52:22;95069.94;;;16.74;61.89
61674;BME280;47573;43.832;5.974;2023-01-28T09:59:14;95076.19;;;16.68;61.64
61674;BME280;47573;43.832;5.974;2023-01-28T10:06:03;95074.50;;;16.67;61.92
61674;BME280;47573;43.832;5.974;2023-01-28T10:13:00;95078.44;;;16.71;61.92
61674;BME280;47573;43.832;5.974;2023-01-28T10:19:45;95080.91;;;16.79;62.01
61674;BME280;47573;43.832;5.974;2023-01-28T10:26:30;95064.09;;;16.90;61.61
61674;BME280;47573;43.832;5.974;2023-01-28T10:33:17;95063.47;;;16.95;60.68
61674;BME280;47573;43.832;5.974;2023-01-28T10:39:59;95052.19;;;17.24;60.99
61674;BME280;47573;43.832;5.974;2023-01-28T10:46:41;95056.84;;;17.54;61.15
61674;BME280;47573;43.832;5.974;2023-01-28T10:53:35;95051.69;;;17.84;61.06
61674;BME280;47573;43.832;5.974;2023-01-28T11:00:23;95051.72;;;18.09;61.60
61674;BME280;47573;43.832;5.974;2023-01-28T11:07:05;95052.81;;;18.01;62.21
61674;BME280;47573;43.832;5.974;2023-01-28T11:13:50;95049.38;;;17.88;62.73
61674;BME280;47573;43.832;5.974;2023-01-28T11:20:36;95039.59;;;17.87;63.48
61674;BME280;47573;43.832;5.974;2023-01-28T11:27:18;95048.13;;;17.90;63.54
61674;BME280;47573;43.832;5.974;2023-01-28T11:34:05;95039.59;;;17.87;63.29
61674;BME280;47573;43.832;5.974;2023-01-28T11:40:49;95038.63;;;17.81;62.44
61674;BME280;47573;43.832;5.974;2023-01-28T11:47:53;95041.53;;;17.80;63.06
61674;BME280;47573;43.832;5.974;2023-01-28T11:54:46;95044.25;;;17.80;62.91
61674;BME280;47573;43.832;5.974;2023-01-28T12:01:39;95034.91;;;17.76;63.10
61674;BME280;47573;43.832;5.974;2023-01-28T12:08:25;95038.84;;;17.80;62.78
61674;BME280;47573;43.832;5.974;2023-01-28T12:15:37;95036.38;;;17.78;62.89
61674;BME280;47573;43.832;5.974;2023-01-28T12:22:38;95017.56;;;17.58;52.75
61674;BME280;47573;43.832;5.974;2023-01-28T12:29:33;95019.47;;;17.51;51.52
61674;BME280;47573;43.832;5.974;2023-01-28T12:36:28;95006.59;;;17.47;48.63
61674;BME280;47573;43.832;5.974;2023-01-28T12:43:15;95001.63;;;17.44;47.83
61674;BME280;47573;43.832;5.974;2023-01-28T12:50:02;94992.28;;;17.46;55.74
61674;BME280;47573;43.832;5.974;2023-01-28T12:56:48;94992.88;;;17.48;53.96
61674;BME280;47573;43.832;5.974;2023-01-28T13:03:35;94990.00;;;17.43;49.18
61674;BME280;47573;43.832;5.974;2023-01-28T13:10:23;94979.31;;;17.30;47.05
61674;BME280;47573;43.832;5.974;2023-01-28T13:17:10;94973.91;;;17.30;46.65
61674;BME280;47573;43.832;5.974;2023-01-28T13:24:03;94970.59;;;17.28;47.96
61674;BME280;47573;43.832;5.974;2023-01-28T13:30:47;94975.19;;;17.21;44.33
61674;BME280;47573;43.832;5.974;2023-01-28T13:37:32;94966.56;;;17.00;45.09
61674;BME280;47573;43.832;5.974;2023-01-28T13:44:20;94979.00;;;17.07;43.82
61674;BME280;47573;43.832;5.974;2023-01-28T13:51:15;94976.53;;;16.99;45.58
61674;BME280;47573;43.832;5.974;2023-01-28T13:58:21;94985.25;;;16.95;44.56
61674;BME280;47573;43.832;5.974;2023-01-28T14:05:31;94987.34;;;16.99;44.34
61674;BME280;47573;43.832;5.974;2023-01-28T14:12:37;94996.16;;;17.63;50.66
61674;BME280;47573;43.832;5.974;2023-01-28T14:19:28;95004.47;;;18.18;51.81
61674;BME280;47573;43.832;5.974;2023-01-28T14:26:17;95009.75;;;18.31;52.93
61674;BME280;47573;43.832;5.974;2023-01-28T14:33:02;95027.94;;;18.24;54.26
61674;BME280;47573;43.832;5.974;2023-01-28T14:39:51;95024.44;;;18.17;55.67
61674;BME280;47573;43.832;5.974;2023-01-28T14:46:37;95023.56;;;18.23;56.50
61674;BME280;47573;43.832;5.974;2023-01-28T14:53:35;95036.63;;;18.26;57.29
61674;BME280;47573;43.832;5.974;2023-01-28T15:00:23;95045.78;;;18.25;57.92
61674;BME280;47573;43.832;5.974;2023-01-28T15:07:15;95055.56;;;18.26;58.69
61674;BME280;47573;43.832;5.974;2023-01-28T15:13:57;95058.13;;;18.39;59.04
61674;BME280;47573;43.832;5.974;2023-01-28T15:20:43;95069.56;;;18.41;59.75
61674;BME280;47573;43.832;5.974;2023-01-28T15:27:27;95076.63;;;18.42;60.03
61674;BME280;47573;43.832;5.974;2023-01-28T15:34:11;95088.41;;;18.54;60.65
61674;BME280;47573;43.832;5.974;2023-01-28T15:40:57;95097.50;;;18.60;60.93
61674;BME280;47573;43.832;5.974;2023-01-28T15:47:38;95101.69;;;18.80;60.45
61674;BME280;47573;43.832;5.974;2023-01-28T15:54:18;95109.91;;;18.92;61.38
61674;BME280;47573;43.832;5.974;2023-01-28T16:01:13;95112.72;;;19.03;61.76
61674;BME280;47573;43.832;5.974;2023-01-28T16:07:54;95132.13;;;19.18;62.19
61674;BME280;47573;43.832;5.974;2023-01-28T16:14:41;95132.56;;;19.15;62.02
61674;BME280;47573;43.832;5.974;2023-01-28T16:21:26;95134.66;;;19.13;62.74
61674;BME280;47573;43.832;5.974;2023-01-28T16:28:13;95152.78;;;19.38;62.63
61674;BME280;47573;43.832;5.974;2023-01-28T16:34:56;95154.44;;;19.39;63.16
61674;BME280;47573;43.832;5.974;2023-01-28T16:41:40;95158.50;;;19.48;63.93
61674;BME280;47573;43.832;5.974;2023-01-28T16:48:21;95168.44;;;19.54;64.23
61674;BME280;47573;43.832;5.974;2023-01-28T16:55:02;95186.25;;;19.61;64.75
61674;BME280;47573;43.832;5.974;2023-01-28T17:01:45;95190.88;;;19.61;65.54
61674;BME280;47573;43.832;5.974;2023-01-28T17:08:26;95201.84;;;19.66;65.82
61674;BME280;47573;43.832;5.974;2023-01-28T17:15:07;95214.47;;;19.72;65.87
61674;BME280;47573;43.832;5.974;2023-01-28T17:21:49;95221.09;;;19.76;66.59
61674;BME280;47573;43.832;5.974;2023-01-28T17:28:30;95221.19;;;19.87;66.28
61674;BME280;47573;43.832;5.974;2023-01-28T17:35:11;95238.44;;;19.93;66.68
61674;BME280;47573;43.832;5.974;2023-01-28T17:41:53;95247.16;;;19.95;67.40
61674;BME280;47573;43.832;5.974;2023-01-28T17:48:34;95256.66;;;20.04;67.37
61674;BME280;47573;43.832;5.974;2023-01-28T17:55:14;95269.13;;;20.05;67.86
61674;BME280;47573;43.832;5.974;2023-01-28T18:01:56;95272.63;;;20.12;68.34
61674;BME280;47573;43.832;5.974;2023-01-28T18:08:38;95267.34;;;20.17;68.29
61674;BME280;47573;43.832;5.974;2023-01-28T18:15:18;95270.47;;;20.21;68.87
61674;BME280;47573;43.832;5.974;2023-01-28T18:22:01;95293.72;;;20.28;68.90
61674;BME280;47573;43.832;5.974;2023-01-28T18:28:41;95306.59;;;20.33;69.12
61674;BME280;47573;43.832;5.974;2023-01-28T18:35:22;95308.63;;;20.37;69.26
61674;BME280;47573;43.832;5.974;2023-01-28T18:42:04;95308.47;;;20.32;69.86
61674;BME280;47573;43.832;5.974;2023-01-28T18:48:45;95321.13;;;20.38;70.29
61674;BME280;47573;43.832;5.974;2023-01-28T18:55:26;95321.28;;;20.43;70.25
61674;BME280;47573;43.832;5.974;2023-01-28T19:02:12;95323.75;;;20.45;70.85
61674;BME280;47573;43.832;5.974;2023-01-28T19:08:53;95326.47;;;20.45;70.97
61674;BME280;47573;43.832;5.974;2023-01-28T19:15:34;95330.56;;;20.36;71.60
61674;BME280;47573;43.832;5.974;2023-01-28T19:22:16;95331.84;;;20.33;71.85
61674;BME280;47573;43.832;5.974;2023-01-28T19:28:57;95344.34;;;20.34;71.87
61674;BME280;47573;43.832;5.974;2023-01-28T19:35:38;95347.03;;;20.34;71.78
61674;BME280;47573;43.832;5.974;2023-01-28T19:42:19;95344.41;;;20.28;71.40
61674;BME280;47573;43.832;5.974;2023-01-28T19:49:00;95352.31;;;20.47;71.50
61674;BME280;47573;43.832;5.974;2023-01-28T19:55:41;95341.09;;;20.62;71.03
61674;BME280;47573;43.832;5.974;2023-01-28T20:02:23;95353.22;;;20.59;72.06
61674;BME280;47573;43.832;5.974;2023-01-28T20:09:05;95356.09;;;20.64;73.24
61674;BME280;47573;43.832;5.974;2023-01-28T20:15:46;95366.88;;;20.71;74.66
61674;BME280;47573;43.832;5.974;2023-01-28T20:22:28;95365.13;;;20.76;78.44
61674;BME280;47573;43.832;5.974;2023-01-28T20:29:11;95377.66;;;20.77;80.07
61674;BME280;47573;43.832;5.974;2023-01-28T20:35:59;95386.38;;;20.79;80.54
61674;BME280;47573;43.832;5.974;2023-01-28T20:42:41;95403.03;;;20.83;80.49
61674;BME280;47573;43.832;5.974;2023-01-28T20:49:21;95402.19;;;20.82;80.39
61674;BME280;47573;43.832;5.974;2023-01-28T20:56:02;95405.06;;;20.88;80.02
61674;BME280;47573;43.832;5.974;2023-01-28T21:02:44;95397.84;;;20.81;79.21
61674;BME280;47573;43.832;5.974;2023-01-28T21:09:25;95402.78;;;20.84;79.21
61674;BME280;47573;43.832;5.974;2023-01-28T21:16:06;95401.75;;;20.86;78.89
61674;BME280;47573;43.832;5.974;2023-01-28T21:22:50;95408.69;;;20.81;78.21
61674;BME280;47573;43.832;5.974;2023-01-28T21:29:31;95404.97;;;20.76;78.59
61674;BME280;47573;43.832;5.974;2023-01-28T21:36:13;95405.28;;;20.68;78.96
61674;BME280;47573;43.832;5.974;2023-01-28T21:42:55;95415.31;;;20.67;78.93
61674;BME280;47573;43.832;5.974;2023-01-28T21:49:36;95416.63;;;20.65;78.12
61674;BME280;47573;43.832;5.974;2023-01-28T21:56:16;95422.09;;;20.58;78.25
61674;BME280;47573;43.832;5.974;2023-01-28T22:02:58;95430.84;;;20.60;78.14
61674;BME280;47573;43.832;5.974;2023-01-28T22:09:39;95438.81;;;20.55;77.80
61674;BME280;47573;43.832;5.974;2023-01-28T22:16:19;95446.97;;;20.55;77.90
61674;BME280;47573;43.832;5.974;2023-01-28T22:23:01;95446.34;;;20.53;78.01
61674;BME280;47573;43.832;5.974;2023-01-28T22:29:42;95458.09;;;20.47;77.44
61674;BME280;47573;43.832;5.974;2023-01-28T22:36:22;95458.53;;;20.44;77.34
61674;BME280;47573;43.832;5.974;2023-01-28T22:43:05;95466.31;;;20.41;77.78
61674;BME280;47573;43.832;5.974;2023-01-28T22:49:45;95467.81;;;20.37;77.24
61674;BME280;47573;43.832;5.974;2023-01-28T22:56:27;95472.38;;;20.36;76.85
61674;BME280;47573;43.832;5.974;2023-01-28T23:03:09;95463.22;;;20.37;76.64
61674;BME280;47573;43.832;5.974;2023-01-28T23:09:50;95470.75;;;20.35;76.71
61674;BME280;47573;43.832;5.974;2023-01-28T23:16:30;95469.06;;;20.34;76.98
61674;BME280;47573;43.832;5.974;2023-01-28T23:23:14;95472.47;;;20.30;76.35
61674;BME280;47573;43.832;5.974;2023-01-28T23:29:56;95476.44;;;20.27;75.93
61674;BME280;47573;43.832;5.974;2023-01-28T23:36:36;95480.41;;;20.00;75.65
61674;BME280;47573;43.832;5.974;2023-01-28T23:43:18;95481.25;;;19.69;74.84
61674;BME280;47573;43.832;5.974;2023-01-28T23:49:58;95477.56;;;19.57;74.30
61674;BME280;47573;43.832;5.974;2023-01-28T23:56:39;95482.22;;;19.44;73.98
